sensor_id;sensor_type;location;lat;lon;timestamp;P1;durP1;ratioP1;P2;durP2;ratioP2
16531;SDS011;8378;57.698;11.958;2022-07-03T00:01:23;1.88;;;1.20;;
16531;SDS011;8378;57.698;11.958;2022-07-03T00:03:49;1.35;;;0.95;;
16531;SDS011;8378;57.698;11.958;2022-07-03T00:06:15;1.13;;;0.90;;
16531;SDS011;8378;57.698;11.958;2022-07-03T00:08:41;2.25;;;1.20;;
16531;SDS011;8378;57.698;11.958;2022-07-03T00:11:07;2.33;;;1.27;;
16531;SDS011;8378;57.698;11.958;2022-07-03T00:13:33;1.48;;;1.15;;
16531;SDS011;8378;57.698;11.958;2022-07-03T00:15:59;1.73;;;1.15;;
16531;SDS011;8378;57.698;11.958;2022-07-03T00:18:25;1.33;;;1.10;;
16531;SDS011;8378;57.698;11.958;2022-07-03T00:21:02;2.50;;;1.15;;
16531;SDS011;8378;57.698;11.958;2022-07-03T00:23:29;1.15;;;1.05;;
16531;SDS011;8378;57.698;11.958;2022-07-03T00:26:05;1.30;;;1.10;;
16531;SDS011;8378;57.698;11.958;2022-07-03T00:28:31;2.85;;;1.20;;
16531;SDS011;8378;57.698;11.958;2022-07-03T00:30:57;1.75;;;1.05;;
16531;SDS011;8378;57.698;11.958;2022-07-03T00:33:23;1.58;;;1.17;;
16531;SDS011;8378;57.698;11.958;2022-07-03T00:35:53;1.60;;;1.10;;
16531;SDS011;8378;57.698;11.958;2022-07-03T00:38:20;1.58;;;1.17;;
16531;SDS011;8378;57.698;11.958;2022-07-03T00:40:47;1.13;;;0.90;;
16531;SDS011;8378;57.698;11.958;2022-07-03T00:43:13;1.02;;;0.95;;
16531;SDS011;8378;57.698;11.958;2022-07-03T00:45:42;1.38;;;1.20;;
16531;SDS011;8378;57.698;11.958;2022-07-03T00:48:12;1.25;;;1.02;;
16531;SDS011;8378;57.698;11.958;2022-07-03T00:50:47;2.08;;;1.00;;
16531;SDS011;8378;57.698;11.958;2022-07-03T00:53:17;1.42;;;0.95;;
16531;SDS011;8378;57.698;11.958;2022-07-03T00:55:53;1.63;;;1.10;;
16531;SDS011;8378;57.698;11.958;2022-07-03T00:58:20;1.10;;;0.85;;
16531;SDS011;8378;57.698;11.958;2022-07-03T01:00:47;1.05;;;0.90;;
16531;SDS011;8378;57.698;11.958;2022-07-03T01:03:15;1.48;;;1.00;;
16531;SDS011;8378;57.698;11.958;2022-07-03T01:05:49;1.27;;;1.00;;
16531;SDS011;8378;57.698;11.958;2022-07-03T01:08:21;1.13;;;1.00;;
16531;SDS011;8378;57.698;11.958;2022-07-03T01:16:33;3.33;;;1.20;;
16531;SDS011;8378;57.698;11.958;2022-07-03T01:19:05;1.00;;;0.90;;
16531;SDS011;8378;57.698;11.958;2022-07-03T01:21:42;1.00;;;0.90;;
16531;SDS011;8378;57.698;11.958;2022-07-03T01:30:13;1.10;;;1.00;;
16531;SDS011;8378;57.698;11.958;2022-07-03T01:32:43;2.10;;;0.90;;
16531;SDS011;8378;57.698;11.958;2022-07-03T01:35:12;2.53;;;1.08;;
16531;SDS011;8378;57.698;11.958;2022-07-03T01:37:40;1.23;;;1.10;;
16531;SDS011;8378;57.698;11.958;2022-07-03T01:40:06;1.23;;;1.10;;
16531;SDS011;8378;57.698;11.958;2022-07-03T01:42:33;0.60;;;0.60;;
16531;SDS011;8378;57.698;11.958;2022-07-03T01:45:04;1.20;;;0.88;;
16531;SDS011;8378;57.698;11.958;2022-07-03T01:47:32;1.23;;;0.90;;
16531;SDS011;8378;57.698;11.958;2022-07-03T01:49:59;1.42;;;0.98;;
16531;SDS011;8378;57.698;11.958;2022-07-03T01:52:26;1.15;;;0.90;;
16531;SDS011;8378;57.698;11.958;2022-07-03T01:54:56;1.63;;;0.93;;
16531;SDS011;8378;57.698;11.958;2022-07-03T01:57:25;1.83;;;1.10;;
16531;SDS011;8378;57.698;11.958;2022-07-03T02:00:02;0.90;;;0.90;;
16531;SDS011;8378;57.698;11.958;2022-07-03T02:02:31;1.55;;;1.00;;
16531;SDS011;8378;57.698;11.958;2022-07-03T02:05:00;0.70;;;0.70;;
16531;SDS011;8378;57.698;11.958;2022-07-03T02:07:37;1.67;;;1.00;;
16531;SDS011;8378;57.698;11.958;2022-07-03T02:10:09;1.38;;;1.20;;
16531;SDS011;8378;57.698;11.958;2022-07-03T02:12:40;1.10;;;0.90;;
16531;SDS011;8378;57.698;11.958;2022-07-03T02:15:16;1.27;;;0.93;;
16531;SDS011;8378;57.698;11.958;2022-07-03T02:17:46;1.23;;;0.95;;
16531;SDS011;8378;57.698;11.958;2022-07-03T02:20:13;0.88;;;0.75;;
16531;SDS011;8378;57.698;11.958;2022-07-03T02:22:47;1.45;;;1.00;;
16531;SDS011;8378;57.698;11.958;2022-07-03T02:25:21;1.92;;;0.82;;
16531;SDS011;8378;57.698;11.958;2022-07-03T02:27:54;1.17;;;0.80;;
16531;SDS011;8378;57.698;11.958;2022-07-03T02:30:24;1.65;;;1.05;;
16531;SDS011;8378;57.698;11.958;2022-07-03T02:32:52;1.00;;;0.90;;
16531;SDS011;8378;57.698;11.958;2022-07-03T02:35:27;1.00;;;0.90;;
16531;SDS011;8378;57.698;11.958;2022-07-03T02:40:43;1.50;;;1.10;;
16531;SDS011;8378;57.698;11.958;2022-07-03T02:43:38;1.40;;;0.85;;
16531;SDS011;8378;57.698;11.958;2022-07-03T02:46:16;1.30;;;0.88;;
16531;SDS011;8378;57.698;11.958;2022-07-03T02:49:20;1.33;;;0.93;;
16531;SDS011;8378;57.698;11.958;2022-07-03T02:54:32;1.00;;;0.90;;
16531;SDS011;8378;57.698;11.958;2022-07-03T02:57:13;0.85;;;0.80;;
16531;SDS011;8378;57.698;11.958;2022-07-03T03:10:44;2.67;;;1.00;;
16531;SDS011;8378;57.698;11.958;2022-07-03T03:13:12;1.67;;;0.88;;
16531;SDS011;8378;57.698;11.958;2022-07-03T03:15:39;2.05;;;0.90;;
16531;SDS011;8378;57.698;11.958;2022-07-03T03:18:12;1.10;;;0.90;;
16531;SDS011;8378;57.698;11.958;2022-07-03T03:20:46;1.30;;;1.05;;
16531;SDS011;8378;57.698;11.958;2022-07-03T03:23:16;2.03;;;1.00;;
16531;SDS011;8378;57.698;11.958;2022-07-03T03:25:50;1.10;;;0.90;;
16531;SDS011;8378;57.698;11.958;2022-07-03T03:28:17;0.93;;;0.85;;
16531;SDS011;8378;57.698;11.958;2022-07-03T03:30:43;0.90;;;0.90;;
16531;SDS011;8378;57.698;11.958;2022-07-03T03:33:09;1.38;;;1.10;;
16531;SDS011;8378;57.698;11.958;2022-07-03T03:35:36;1.13;;;0.90;;
16531;SDS011;8378;57.698;11.958;2022-07-03T03:38:03;0.98;;;0.88;;
16531;SDS011;8378;57.698;11.958;2022-07-03T03:40:29;0.82;;;0.80;;
16531;SDS011;8378;57.698;11.958;2022-07-03T03:42:56;1.15;;;0.90;;
16531;SDS011;8378;57.698;11.958;2022-07-03T03:45:21;1.70;;;1.00;;
16531;SDS011;8378;57.698;11.958;2022-07-03T03:47:47;2.25;;;0.88;;
16531;SDS011;8378;57.698;11.958;2022-07-03T03:50:13;1.35;;;1.13;;
16531;SDS011;8378;57.698;11.958;2022-07-03T03:52:38;1.40;;;1.00;;
16531;SDS011;8378;57.698;11.958;2022-07-03T03:55:05;1.25;;;0.90;;
16531;SDS011;8378;57.698;11.958;2022-07-03T03:57:31;0.90;;;0.90;;
16531;SDS011;8378;57.698;11.958;2022-07-03T03:59:56;1.40;;;1.10;;
16531;SDS011;8378;57.698;11.958;2022-07-03T04:02:22;2.42;;;0.90;;
16531;SDS011;8378;57.698;11.958;2022-07-03T04:04:48;2.15;;;1.10;;
16531;SDS011;8378;57.698;11.958;2022-07-03T04:07:13;1.23;;;0.90;;
16531;SDS011;8378;57.698;11.958;2022-07-03T04:09:39;0.95;;;0.82;;
16531;SDS011;8378;57.698;11.958;2022-07-03T04:12:05;1.10;;;1.00;;
16531;SDS011;8378;57.698;11.958;2022-07-03T04:14:31;1.20;;;0.85;;
16531;SDS011;8378;57.698;11.958;2022-07-03T04:16:56;1.30;;;0.93;;
16531;SDS011;8378;57.698;11.958;2022-07-03T04:19:22;0.88;;;0.82;;
16531;SDS011;8378;57.698;11.958;2022-07-03T04:21:48;1.30;;;1.00;;
16531;SDS011;8378;57.698;11.958;2022-07-03T04:24:16;1.00;;;0.90;;
16531;SDS011;8378;57.698;11.958;2022-07-03T04:26:42;1.10;;;0.93;;
16531;SDS011;8378;57.698;11.958;2022-07-03T04:29:08;1.10;;;0.90;;
16531;SDS011;8378;57.698;11.958;2022-07-03T04:31:34;1.77;;;1.02;;
16531;SDS011;8378;57.698;11.958;2022-07-03T04:33:59;1.17;;;1.08;;
16531;SDS011;8378;57.698;11.958;2022-07-03T04:36:25;1.00;;;0.90;;
16531;SDS011;8378;57.698;11.958;2022-07-03T04:38:50;0.77;;;0.77;;
16531;SDS011;8378;57.698;11.958;2022-07-03T04:41:16;1.40;;;0.90;;
16531;SDS011;8378;57.698;11.958;2022-07-03T04:43:42;1.77;;;0.88;;
16531;SDS011;8378;57.698;11.958;2022-07-03T04:46:08;1.48;;;1.08;;
16531;SDS011;8378;57.698;11.958;2022-07-03T04:48:34;1.17;;;1.00;;
16531;SDS011;8378;57.698;11.958;2022-07-03T04:50:59;1.33;;;0.80;;
16531;SDS011;8378;57.698;11.958;2022-07-03T04:53:25;1.10;;;0.82;;
16531;SDS011;8378;57.698;11.958;2022-07-03T04:55:51;1.50;;;1.13;;
16531;SDS011;8378;57.698;11.958;2022-07-03T04:58:17;1.00;;;0.90;;
16531;SDS011;8378;57.698;11.958;2022-07-03T05:00:43;0.95;;;0.85;;
16531;SDS011;8378;57.698;11.958;2022-07-03T05:03:10;0.90;;;0.85;;
16531;SDS011;8378;57.698;11.958;2022-07-03T05:05:36;1.73;;;1.05;;
16531;SDS011;8378;57.698;11.958;2022-07-03T05:08:02;1.00;;;0.90;;
16531;SDS011;8378;57.698;11.958;2022-07-03T05:10:28;0.98;;;0.88;;
16531;SDS011;8378;57.698;11.958;2022-07-03T05:12:53;0.60;;;0.60;;
16531;SDS011;8378;57.698;11.958;2022-07-03T05:15:19;1.40;;;0.90;;
16531;SDS011;8378;57.698;11.958;2022-07-03T05:17:45;0.90;;;0.90;;
16531;SDS011;8378;57.698;11.958;2022-07-03T05:20:11;1.10;;;0.98;;
16531;SDS011;8378;57.698;11.958;2022-07-03T05:22:50;1.00;;;1.00;;
16531;SDS011;8378;57.698;11.958;2022-07-03T05:25:23;1.30;;;0.90;;
16531;SDS011;8378;57.698;11.958;2022-07-03T05:27:49;1.00;;;0.90;;
16531;SDS011;8378;57.698;11.958;2022-07-03T05:30:15;0.60;;;0.60;;
16531;SDS011;8378;57.698;11.958;2022-07-03T05:32:41;0.75;;;0.75;;
16531;SDS011;8378;57.698;11.958;2022-07-03T05:35:07;0.77;;;0.77;;
16531;SDS011;8378;57.698;11.958;2022-07-03T05:37:33;1.42;;;0.90;;
16531;SDS011;8378;57.698;11.958;2022-07-03T05:39:59;1.08;;;0.98;;
16531;SDS011;8378;57.698;11.958;2022-07-03T05:42:25;1.02;;;0.90;;
16531;SDS011;8378;57.698;11.958;2022-07-03T05:44:50;1.25;;;0.90;;
16531;SDS011;8378;57.698;11.958;2022-07-03T05:47:16;1.42;;;1.00;;
16531;SDS011;8378;57.698;11.958;2022-07-03T05:49:42;1.15;;;0.77;;
16531;SDS011;8378;57.698;11.958;2022-07-03T05:52:07;1.02;;;0.82;;
16531;SDS011;8378;57.698;11.958;2022-07-03T05:54:33;1.63;;;1.20;;
16531;SDS011;8378;57.698;11.958;2022-07-03T05:56:58;0.88;;;0.88;;
16531;SDS011;8378;57.698;11.958;2022-07-03T05:59:24;1.08;;;0.90;;
16531;SDS011;8378;57.698;11.958;2022-07-03T06:01:50;0.80;;;0.80;;
16531;SDS011;8378;57.698;11.958;2022-07-03T06:04:15;1.27;;;0.90;;
16531;SDS011;8378;57.698;11.958;2022-07-03T06:06:41;0.65;;;0.65;;
16531;SDS011;8378;57.698;11.958;2022-07-03T06:09:07;1.05;;;0.95;;
16531;SDS011;8378;57.698;11.958;2022-07-03T06:11:32;1.00;;;0.90;;
16531;SDS011;8378;57.698;11.958;2022-07-03T06:13:58;1.33;;;0.95;;
16531;SDS011;8378;57.698;11.958;2022-07-03T06:16:24;1.10;;;0.95;;
16531;SDS011;8378;57.698;11.958;2022-07-03T06:18:49;1.42;;;0.90;;
16531;SDS011;8378;57.698;11.958;2022-07-03T06:21:15;0.80;;;0.80;;
16531;SDS011;8378;57.698;11.958;2022-07-03T06:23:41;1.00;;;0.82;;
16531;SDS011;8378;57.698;11.958;2022-07-03T06:26:07;1.20;;;1.10;;
16531;SDS011;8378;57.698;11.958;2022-07-03T06:28:32;1.88;;;1.05;;
16531;SDS011;8378;57.698;11.958;2022-07-03T06:30:58;1.88;;;1.20;;
16531;SDS011;8378;57.698;11.958;2022-07-03T06:33:23;1.00;;;0.90;;
16531;SDS011;8378;57.698;11.958;2022-07-03T06:35:49;1.15;;;0.80;;
16531;SDS011;8378;57.698;11.958;2022-07-03T06:38:15;1.10;;;1.00;;
16531;SDS011;8378;57.698;11.958;2022-07-03T06:40:40;1.40;;;1.10;;
16531;SDS011;8378;57.698;11.958;2022-07-03T06:43:06;1.17;;;0.90;;
16531;SDS011;8378;57.698;11.958;2022-07-03T06:45:32;0.93;;;0.88;;
16531;SDS011;8378;57.698;11.958;2022-07-03T06:47:57;1.13;;;1.02;;
16531;SDS011;8378;57.698;11.958;2022-07-03T06:50:23;1.15;;;1.00;;
16531;SDS011;8378;57.698;11.958;2022-07-03T06:52:49;1.27;;;1.08;;
16531;SDS011;8378;57.698;11.958;2022-07-03T06:55:14;0.80;;;0.77;;
16531;SDS011;8378;57.698;11.958;2022-07-03T06:57:40;0.85;;;0.80;;
16531;SDS011;8378;57.698;11.958;2022-07-03T07:00:06;0.80;;;0.80;;
16531;SDS011;8378;57.698;11.958;2022-07-03T07:02:32;1.45;;;1.00;;
16531;SDS011;8378;57.698;11.958;2022-07-03T07:04:58;0.80;;;0.80;;
16531;SDS011;8378;57.698;11.958;2022-07-03T07:07:24;1.23;;;0.90;;
16531;SDS011;8378;57.698;11.958;2022-07-03T07:09:50;1.52;;;1.02;;
16531;SDS011;8378;57.698;11.958;2022-07-03T07:12:16;1.02;;;0.98;;
16531;SDS011;8378;57.698;11.958;2022-07-03T07:14:42;1.08;;;0.93;;
16531;SDS011;8378;57.698;11.958;2022-07-03T07:17:08;1.55;;;1.02;;
16531;SDS011;8378;57.698;11.958;2022-07-03T07:19:33;1.25;;;1.08;;
16531;SDS011;8378;57.698;11.958;2022-07-03T07:21:59;1.10;;;1.00;;
16531;SDS011;8378;57.698;11.958;2022-07-03T07:24:26;1.23;;;0.90;;
16531;SDS011;8378;57.698;11.958;2022-07-03T07:26:52;2.28;;;1.00;;
16531;SDS011;8378;57.698;11.958;2022-07-03T07:29:18;0.90;;;0.90;;
16531;SDS011;8378;57.698;11.958;2022-07-03T07:31:44;1.20;;;1.10;;
16531;SDS011;8378;57.698;11.958;2022-07-03T07:34:09;1.40;;;1.20;;
16531;SDS011;8378;57.698;11.958;2022-07-03T07:36:35;1.75;;;1.10;;
16531;SDS011;8378;57.698;11.958;2022-07-03T07:39:01;1.33;;;1.08;;
16531;SDS011;8378;57.698;11.958;2022-07-03T07:41:26;1.15;;;0.98;;
16531;SDS011;8378;57.698;11.958;2022-07-03T07:43:52;1.20;;;1.00;;
16531;SDS011;8378;57.698;11.958;2022-07-03T07:46:17;1.08;;;0.98;;
16531;SDS011;8378;57.698;11.958;2022-07-03T07:48:43;1.00;;;0.90;;
16531;SDS011;8378;57.698;11.958;2022-07-03T07:51:10;0.95;;;0.85;;
16531;SDS011;8378;57.698;11.958;2022-07-03T07:53:36;1.20;;;0.90;;
16531;SDS011;8378;57.698;11.958;2022-07-03T07:56:02;1.60;;;1.02;;
16531;SDS011;8378;57.698;11.958;2022-07-03T07:58:28;1.17;;;1.00;;
16531;SDS011;8378;57.698;11.958;2022-07-03T08:00:54;1.10;;;1.00;;
16531;SDS011;8378;57.698;11.958;2022-07-03T08:03:38;0.95;;;0.95;;
16531;SDS011;8378;57.698;11.958;2022-07-03T08:06:22;0.82;;;0.82;;
16531;SDS011;8378;57.698;11.958;2022-07-03T08:08:48;1.00;;;0.85;;
16531;SDS011;8378;57.698;11.958;2022-07-03T08:11:13;1.10;;;1.00;;
16531;SDS011;8378;57.698;11.958;2022-07-03T08:13:39;1.10;;;1.00;;
16531;SDS011;8378;57.698;11.958;2022-07-03T08:16:05;1.42;;;1.05;;
16531;SDS011;8378;57.698;11.958;2022-07-03T08:18:30;1.30;;;1.05;;
16531;SDS011;8378;57.698;11.958;2022-07-03T08:20:56;0.98;;;0.90;;
16531;SDS011;8378;57.698;11.958;2022-07-03T08:23:22;1.30;;;1.05;;
16531;SDS011;8378;57.698;11.958;2022-07-03T08:25:47;1.10;;;1.00;;
16531;SDS011;8378;57.698;11.958;2022-07-03T08:28:13;1.15;;;1.05;;
16531;SDS011;8378;57.698;11.958;2022-07-03T08:30:38;1.20;;;1.10;;
16531;SDS011;8378;57.698;11.958;2022-07-03T08:33:04;0.90;;;0.80;;
16531;SDS011;8378;57.698;11.958;2022-07-03T08:35:30;0.98;;;0.80;;
16531;SDS011;8378;57.698;11.958;2022-07-03T08:37:56;1.02;;;0.90;;
16531;SDS011;8378;57.698;11.958;2022-07-03T08:40:21;1.10;;;0.95;;
16531;SDS011;8378;57.698;11.958;2022-07-03T08:42:48;1.77;;;1.10;;
16531;SDS011;8378;57.698;11.958;2022-07-03T08:45:21;1.20;;;1.10;;
16531;SDS011;8378;57.698;11.958;2022-07-03T08:47:49;1.25;;;1.02;;
16531;SDS011;8378;57.698;11.958;2022-07-03T08:50:18;1.00;;;0.90;;
16531;SDS011;8378;57.698;11.958;2022-07-03T08:52:45;1.13;;;1.00;;
16531;SDS011;8378;57.698;11.958;2022-07-03T08:55:12;1.15;;;0.95;;
16531;SDS011;8378;57.698;11.958;2022-07-03T08:57:39;1.08;;;0.98;;
16531;SDS011;8378;57.698;11.958;2022-07-03T09:00:08;1.10;;;1.00;;
16531;SDS011;8378;57.698;11.958;2022-07-03T09:02:35;1.10;;;1.00;;
16531;SDS011;8378;57.698;11.958;2022-07-03T09:05:03;1.63;;;1.10;;
16531;SDS011;8378;57.698;11.958;2022-07-03T09:07:34;1.88;;;1.13;;
16531;SDS011;8378;57.698;11.958;2022-07-03T09:10:03;1.08;;;0.98;;
16531;SDS011;8378;57.698;11.958;2022-07-03T09:12:30;1.15;;;0.90;;
16531;SDS011;8378;57.698;11.958;2022-07-03T09:14:56;0.90;;;0.90;;
16531;SDS011;8378;57.698;11.958;2022-07-03T09:17:23;0.98;;;0.98;;
16531;SDS011;8378;57.698;11.958;2022-07-03T09:19:48;1.83;;;1.20;;
16531;SDS011;8378;57.698;11.958;2022-07-03T09:24:50;1.10;;;1.00;;
16531;SDS011;8378;57.698;11.958;2022-07-03T09:27:19;0.93;;;0.90;;
16531;SDS011;8378;57.698;11.958;2022-07-03T09:29:50;1.20;;;1.02;;
16531;SDS011;8378;57.698;11.958;2022-07-03T09:32:26;2.40;;;1.10;;
16531;SDS011;8378;57.698;11.958;2022-07-03T09:35:09;1.13;;;1.02;;
16531;SDS011;8378;57.698;11.958;2022-07-03T09:38:03;1.13;;;1.00;;
16531;SDS011;8378;57.698;11.958;2022-07-03T09:40:48;1.05;;;0.95;;
16531;SDS011;8378;57.698;11.958;2022-07-03T09:43:28;1.25;;;1.13;;
16531;SDS011;8378;57.698;11.958;2022-07-03T09:45:55;2.00;;;1.30;;
16531;SDS011;8378;57.698;11.958;2022-07-03T09:48:24;1.83;;;1.20;;
16531;SDS011;8378;57.698;11.958;2022-07-03T09:51:22;1.30;;;1.10;;
16531;SDS011;8378;57.698;11.958;2022-07-03T09:53:57;1.13;;;1.02;;
16531;SDS011;8378;57.698;11.958;2022-07-03T09:56:43;1.13;;;1.00;;
16531;SDS011;8378;57.698;11.958;2022-07-03T09:59:10;1.25;;;1.15;;
16531;SDS011;8378;57.698;11.958;2022-07-03T10:01:40;1.20;;;1.10;;
16531;SDS011;8378;57.698;11.958;2022-07-03T10:04:08;1.25;;;1.00;;
16531;SDS011;8378;57.698;11.958;2022-07-03T10:06:48;0.73;;;0.73;;
16531;SDS011;8378;57.698;11.958;2022-07-03T10:09:27;1.15;;;1.05;;
16531;SDS011;8378;57.698;11.958;2022-07-03T10:11:55;0.95;;;0.90;;
16531;SDS011;8378;57.698;11.958;2022-07-03T10:14:25;1.15;;;1.08;;
16531;SDS011;8378;57.698;11.958;2022-07-03T10:16:53;1.55;;;1.30;;
16531;SDS011;8378;57.698;11.958;2022-07-03T10:19:31;1.10;;;1.00;;
16531;SDS011;8378;57.698;11.958;2022-07-03T10:22:05;1.38;;;1.10;;
16531;SDS011;8378;57.698;11.958;2022-07-03T10:24:35;1.30;;;1.20;;
16531;SDS011;8378;57.698;11.958;2022-07-03T10:27:01;1.42;;;1.20;;
16531;SDS011;8378;57.698;11.958;2022-07-03T10:29:27;1.20;;;1.10;;
16531;SDS011;8378;57.698;11.958;2022-07-03T10:31:53;1.73;;;1.15;;
16531;SDS011;8378;57.698;11.958;2022-07-03T10:34:20;0.90;;;0.90;;
16531;SDS011;8378;57.698;11.958;2022-07-03T10:36:57;2.83;;;1.30;;
16531;SDS011;8378;57.698;11.958;2022-07-03T10:39:25;1.73;;;1.10;;
16531;SDS011;8378;57.698;11.958;2022-07-03T10:41:58;1.33;;;1.10;;
16531;SDS011;8378;57.698;11.958;2022-07-03T10:44:51;1.20;;;1.10;;
16531;SDS011;8378;57.698;11.958;2022-07-03T10:50:08;1.30;;;1.20;;
16531;SDS011;8378;57.698;11.958;2022-07-03T10:52:36;1.58;;;1.15;;
16531;SDS011;8378;57.698;11.958;2022-07-03T10:55:02;1.02;;;1.00;;
16531;SDS011;8378;57.698;11.958;2022-07-03T10:57:31;2.03;;;1.27;;
16531;SDS011;8378;57.698;11.958;2022-07-03T10:59:57;1.45;;;1.15;;
16531;SDS011;8378;57.698;11.958;2022-07-03T11:02:38;1.83;;;1.30;;
16531;SDS011;8378;57.698;11.958;2022-07-03T11:07:37;2.05;;;1.20;;
16531;SDS011;8378;57.698;11.958;2022-07-03T11:12:57;1.40;;;1.30;;
16531;SDS011;8378;57.698;11.958;2022-07-03T11:15:47;2.75;;;1.20;;
16531;SDS011;8378;57.698;11.958;2022-07-03T11:38:48;2.80;;;2.10;;
16531;SDS011;8378;57.698;11.958;2022-07-03T11:41:20;2.58;;;2.33;;
16531;SDS011;8378;57.698;11.958;2022-07-03T11:43:49;2.20;;;2.00;;
16531;SDS011;8378;57.698;11.958;2022-07-03T11:46:19;2.28;;;2.08;;
16531;SDS011;8378;57.698;11.958;2022-07-03T11:48:46;2.60;;;2.40;;
16531;SDS011;8378;57.698;11.958;2022-07-03T11:51:12;2.38;;;2.10;;
16531;SDS011;8378;57.698;11.958;2022-07-03T11:53:39;2.67;;;2.40;;
16531;SDS011;8378;57.698;11.958;2022-07-03T11:56:09;2.25;;;2.05;;
16531;SDS011;8378;57.698;11.958;2022-07-03T12:03:52;2.22;;;2.03;;
16531;SDS011;8378;57.698;11.958;2022-07-03T12:06:19;3.08;;;2.00;;
16531;SDS011;8378;57.698;11.958;2022-07-03T12:08:45;2.33;;;2.10;;
16531;SDS011;8378;57.698;11.958;2022-07-03T12:11:12;2.45;;;1.83;;
16531;SDS011;8378;57.698;11.958;2022-07-03T12:13:42;2.22;;;2.03;;
16531;SDS011;8378;57.698;11.958;2022-07-03T12:16:12;1.73;;;1.63;;
16531;SDS011;8378;57.698;11.958;2022-07-03T12:18:49;2.42;;;1.75;;
16531;SDS011;8378;57.698;11.958;2022-07-03T12:21:24;1.90;;;1.80;;
16531;SDS011;8378;57.698;11.958;2022-07-03T12:23:54;1.80;;;1.70;;
16531;SDS011;8378;57.698;11.958;2022-07-03T12:26:30;1.73;;;1.60;;
16531;SDS011;8378;57.698;11.958;2022-07-03T12:28:58;2.67;;;1.80;;
16531;SDS011;8378;57.698;11.958;2022-07-03T12:31:28;2.35;;;1.70;;
16531;SDS011;8378;57.698;11.958;2022-07-03T12:33:55;2.38;;;1.70;;
16531;SDS011;8378;57.698;11.958;2022-07-03T12:36:22;2.00;;;1.70;;
16531;SDS011;8378;57.698;11.958;2022-07-03T12:38:54;1.70;;;1.60;;
16531;SDS011;8378;57.698;11.958;2022-07-03T12:41:21;2.53;;;1.50;;
16531;SDS011;8378;57.698;11.958;2022-07-03T12:43:48;1.67;;;1.50;;
16531;SDS011;8378;57.698;11.958;2022-07-03T12:46:15;1.90;;;1.73;;
16531;SDS011;8378;57.698;11.958;2022-07-03T12:48:56;1.98;;;1.77;;
16531;SDS011;8378;57.698;11.958;2022-07-03T12:56:35;1.70;;;1.60;;
16531;SDS011;8378;57.698;11.958;2022-07-03T12:59:01;1.48;;;1.38;;
16531;SDS011;8378;57.698;11.958;2022-07-03T13:01:43;1.65;;;1.55;;
16531;SDS011;8378;57.698;11.958;2022-07-03T13:04:30;2.17;;;1.48;;
16531;SDS011;8378;57.698;11.958;2022-07-03T13:07:02;1.90;;;1.50;;
16531;SDS011;8378;57.698;11.958;2022-07-03T13:09:30;1.50;;;1.40;;
16531;SDS011;8378;57.698;11.958;2022-07-03T13:11:55;1.60;;;1.50;;
16531;SDS011;8378;57.698;11.958;2022-07-03T13:14:21;1.40;;;1.30;;
16531;SDS011;8378;57.698;11.958;2022-07-03T13:19:20;1.73;;;1.52;;
16531;SDS011;8378;57.698;11.958;2022-07-03T13:21:47;1.65;;;1.55;;
16531;SDS011;8378;57.698;11.958;2022-07-03T13:24:16;1.63;;;1.52;;
16531;SDS011;8378;57.698;11.958;2022-07-03T13:26:43;1.50;;;1.40;;
16531;SDS011;8378;57.698;11.958;2022-07-03T13:29:10;1.52;;;1.40;;
16531;SDS011;8378;57.698;11.958;2022-07-03T13:31:36;1.40;;;1.30;;
16531;SDS011;8378;57.698;11.958;2022-07-03T13:34:01;1.58;;;1.38;;
16531;SDS011;8378;57.698;11.958;2022-07-03T13:36:28;1.70;;;1.48;;
16531;SDS011;8378;57.698;11.958;2022-07-03T13:38:55;1.45;;;1.35;;
16531;SDS011;8378;57.698;11.958;2022-07-03T13:41:22;1.60;;;1.50;;
16531;SDS011;8378;57.698;11.958;2022-07-03T13:43:48;1.38;;;1.27;;
16531;SDS011;8378;57.698;11.958;2022-07-03T13:46:15;1.40;;;1.30;;
16531;SDS011;8378;57.698;11.958;2022-07-03T13:48:42;1.50;;;1.40;;
16531;SDS011;8378;57.698;11.958;2022-07-03T13:51:07;1.90;;;1.60;;
16531;SDS011;8378;57.698;11.958;2022-07-03T13:53:33;1.60;;;1.50;;
16531;SDS011;8378;57.698;11.958;2022-07-03T13:55:59;2.00;;;1.20;;
16531;SDS011;8378;57.698;11.958;2022-07-03T13:58:25;1.70;;;1.60;;
16531;SDS011;8378;57.698;11.958;2022-07-03T14:00:52;1.45;;;1.35;;
16531;SDS011;8378;57.698;11.958;2022-07-03T14:03:18;1.60;;;1.40;;
16531;SDS011;8378;57.698;11.958;2022-07-03T14:05:44;1.50;;;1.40;;
16531;SDS011;8378;57.698;11.958;2022-07-03T14:08:09;1.60;;;1.50;;
16531;SDS011;8378;57.698;11.958;2022-07-03T14:10:36;1.50;;;1.40;;
16531;SDS011;8378;57.698;11.958;2022-07-03T14:13:02;1.60;;;1.50;;
16531;SDS011;8378;57.698;11.958;2022-07-03T14:15:28;1.40;;;1.30;;
16531;SDS011;8378;57.698;11.958;2022-07-03T14:17:54;1.42;;;1.33;;
16531;SDS011;8378;57.698;11.958;2022-07-03T14:20:21;1.40;;;1.30;;
16531;SDS011;8378;57.698;11.958;2022-07-03T14:22:47;2.15;;;1.50;;
16531;SDS011;8378;57.698;11.958;2022-07-03T14:25:12;1.45;;;1.33;;
16531;SDS011;8378;57.698;11.958;2022-07-03T14:27:38;2.28;;;1.50;;
16531;SDS011;8378;57.698;11.958;2022-07-03T14:30:22;2.17;;;1.50;;
16531;SDS011;8378;57.698;11.958;2022-07-03T14:33:06;2.05;;;1.40;;
16531;SDS011;8378;57.698;11.958;2022-07-03T14:35:31;1.40;;;1.30;;
16531;SDS011;8378;57.698;11.958;2022-07-03T14:37:57;1.50;;;1.40;;
16531;SDS011;8378;57.698;11.958;2022-07-03T14:40:23;1.40;;;1.20;;
16531;SDS011;8378;57.698;11.958;2022-07-03T14:42:48;1.50;;;1.40;;
16531;SDS011;8378;57.698;11.958;2022-07-03T14:45:14;1.40;;;1.30;;
16531;SDS011;8378;57.698;11.958;2022-07-03T14:47:40;1.48;;;1.30;;
16531;SDS011;8378;57.698;11.958;2022-07-03T14:50:05;1.30;;;1.20;;
16531;SDS011;8378;57.698;11.958;2022-07-03T14:52:32;1.77;;;1.50;;
16531;SDS011;8378;57.698;11.958;2022-07-03T14:54:58;1.40;;;1.27;;
16531;SDS011;8378;57.698;11.958;2022-07-03T15:00:17;1.45;;;1.35;;
16531;SDS011;8378;57.698;11.958;2022-07-03T15:05:30;1.70;;;1.23;;
16531;SDS011;8378;57.698;11.958;2022-07-03T15:11:00;2.22;;;1.40;;
16531;SDS011;8378;57.698;11.958;2022-07-03T15:13:30;1.92;;;1.20;;
16531;SDS011;8378;57.698;11.958;2022-07-03T15:15:57;1.35;;;1.25;;
16531;SDS011;8378;57.698;11.958;2022-07-03T15:18:23;1.38;;;1.27;;
16531;SDS011;8378;57.698;11.958;2022-07-03T15:20:50;1.17;;;1.08;;
16531;SDS011;8378;57.698;11.958;2022-07-03T15:23:17;2.53;;;1.48;;
16531;SDS011;8378;57.698;11.958;2022-07-03T15:25:44;1.40;;;1.20;;
16531;SDS011;8378;57.698;11.958;2022-07-03T15:28:11;1.27;;;1.17;;
16531;SDS011;8378;57.698;11.958;2022-07-03T15:30:38;1.40;;;1.30;;
16531;SDS011;8378;57.698;11.958;2022-07-03T15:33:12;1.40;;;1.30;;
16531;SDS011;8378;57.698;11.958;2022-07-03T15:35:38;1.25;;;1.15;;
16531;SDS011;8378;57.698;11.958;2022-07-03T15:38:20;1.35;;;1.20;;
16531;SDS011;8378;57.698;11.958;2022-07-03T15:40:53;1.48;;;1.30;;
16531;SDS011;8378;57.698;11.958;2022-07-03T15:43:25;1.55;;;1.45;;
16531;SDS011;8378;57.698;11.958;2022-07-03T15:49:22;1.60;;;1.30;;
16531;SDS011;8378;57.698;11.958;2022-07-03T15:51:58;1.27;;;1.17;;
16531;SDS011;8378;57.698;11.958;2022-07-03T16:00:00;1.55;;;1.45;;
16531;SDS011;8378;57.698;11.958;2022-07-03T16:02:32;1.52;;;1.38;;
16531;SDS011;8378;57.698;11.958;2022-07-03T16:05:23;1.40;;;1.30;;
16531;SDS011;8378;57.698;11.958;2022-07-03T16:07:51;1.65;;;1.40;;
16531;SDS011;8378;57.698;11.958;2022-07-03T16:10:19;1.30;;;1.20;;
16531;SDS011;8378;57.698;11.958;2022-07-03T16:12:46;1.33;;;1.23;;
16531;SDS011;8378;57.698;11.958;2022-07-03T16:15:17;1.40;;;1.30;;
16531;SDS011;8378;57.698;11.958;2022-07-03T16:17:45;1.45;;;1.30;;
16531;SDS011;8378;57.698;11.958;2022-07-03T16:20:12;1.20;;;1.10;;
16531;SDS011;8378;57.698;11.958;2022-07-03T16:22:39;1.48;;;1.30;;
16531;SDS011;8378;57.698;11.958;2022-07-03T16:25:05;1.30;;;1.20;;
16531;SDS011;8378;57.698;11.958;2022-07-03T16:27:33;1.40;;;1.30;;